createdAt,value
2018-10-09T00:01:00.732Z,61.40
2018-10-09T00:03:29.369Z,61.40
2018-10-09T00:05:58.012Z,61.40
2018-10-09T00:08:26.684Z,61.40
2018-10-09T00:10:55.336Z,61.40
2018-10-09T00:13:23.984Z,61.50
2018-10-09T00:15:52.657Z,61.40
2018-10-09T00:18:21.285Z,61.40
2018-10-09T00:20:49.935Z,61.50
2018-10-09T00:23:18.599Z,61.50
2018-10-09T00:25:47.268Z,61.50
2018-10-09T00:28:15.916Z,61.50
2018-10-09T00:30:44.622Z,61.50
2018-10-09T00:33:13.271Z,61.50
2018-10-09T00:35:41.948Z,61.60
2018-10-09T00:38:11.469Z,61.50
2018-10-09T00:40:40.111Z,61.30
2018-10-09T00:43:08.748Z,61.40
2018-10-09T00:45:37.416Z,61.40
2018-10-09T00:48:06.084Z,61.50
2018-10-09T00:50:34.747Z,61.60
2018-10-09T00:53:03.408Z,61.40
2018-10-09T00:55:32.053Z,61.40
2018-10-09T00:58:00.837Z,61.50
2018-10-09T01:00:29.504Z,61.50
2018-10-09T01:02:58.164Z,61.50
2018-10-09T01:05:26.819Z,61.40
2018-10-09T01:07:55.485Z,61.50
2018-10-09T01:10:24.131Z,61.50
2018-10-09T01:12:52.768Z,61.50
2018-10-09T01:15:21.420Z,62.20
2018-10-09T01:17:50.060Z,61.50
2018-10-09T01:20:23.844Z,61.50
2018-10-09T01:22:52.503Z,61.50
2018-10-09T01:25:21.560Z,61.50
2018-10-09T01:27:50.573Z,61.40
2018-10-09T01:30:19.245Z,61.50
2018-10-09T01:32:47.949Z,61.40
2018-10-09T01:35:16.824Z,61.40
2018-10-09T01:37:45.460Z,61.50
2018-10-09T01:40:14.096Z,61.40
2018-10-09T01:42:42.756Z,61.40
2018-10-09T01:45:11.401Z,61.40
2018-10-09T01:47:40.121Z,61.40
2018-10-09T01:50:08.795Z,61.50
2018-10-09T01:52:37.424Z,61.60
2018-10-09T01:55:06.889Z,61.60
2018-10-09T01:57:35.964Z,61.50
2018-10-09T02:00:05.664Z,61.60
2018-10-09T02:02:34.335Z,61.60
2018-10-09T02:05:02.977Z,61.50
2018-10-09T02:07:31.641Z,61.50
2018-10-09T02:10:00.335Z,61.50
2018-10-09T02:12:29.005Z,61.60
2018-10-09T02:14:57.669Z,61.50
2018-10-09T02:17:26.361Z,61.50
2018-10-09T02:19:55.060Z,61.50
2018-10-09T02:22:23.724Z,61.50
2018-10-09T02:24:52.421Z,61.60
2018-10-09T02:27:21.276Z,61.60
2018-10-09T02:29:49.948Z,61.50
2018-10-09T02:32:18.609Z,61.60
2018-10-09T02:34:47.480Z,61.50
2018-10-09T02:37:16.142Z,61.50
2018-10-09T02:39:44.827Z,61.50
2018-10-09T02:42:13.501Z,61.60
2018-10-09T02:44:42.213Z,61.50
2018-10-09T02:47:10.881Z,61.60
2018-10-09T02:49:39.515Z,61.50
2018-10-09T02:52:08.148Z,61.60
2018-10-09T02:54:36.812Z,61.60
2018-10-09T02:57:05.694Z,61.60
2018-10-09T02:59:34.346Z,61.50
2018-10-09T03:02:03.071Z,62.20
2018-10-09T03:04:31.729Z,61.60
2018-10-09T03:07:00.384Z,61.60
2018-10-09T03:09:29.049Z,61.60
2018-10-09T03:11:57.721Z,61.70
2018-10-09T03:14:26.358Z,61.60
2018-10-09T03:16:55.128Z,61.70
2018-10-09T03:19:23.782Z,61.70
2018-10-09T03:21:52.416Z,61.70
2018-10-09T03:24:21.065Z,61.70
2018-10-09T03:26:49.727Z,61.70
2018-10-09T03:29:18.420Z,61.80
2018-10-09T03:31:47.077Z,61.80
2018-10-09T03:34:15.720Z,61.80
2018-10-09T03:36:44.364Z,61.80
2018-10-09T03:39:13.161Z,61.70
2018-10-09T03:41:41.823Z,61.70
2018-10-09T03:44:10.657Z,61.70
2018-10-09T03:46:39.308Z,61.70
2018-10-09T03:49:08.086Z,61.70
2018-10-09T03:51:36.753Z,61.70
2018-10-09T03:54:05.397Z,61.80
2018-10-09T03:56:34.072Z,61.80
2018-10-09T03:59:02.717Z,61.80
2018-10-09T04:01:31.380Z,61.80
2018-10-09T04:04:00.148Z,61.90
2018-10-09T04:06:28.817Z,61.90
2018-10-09T04:08:57.489Z,61.80
2018-10-09T04:11:26.156Z,61.90
2018-10-09T04:13:54.812Z,61.90
2018-10-09T04:16:23.465Z,61.90
2018-10-09T04:18:52.104Z,61.90
2018-10-09T04:21:20.741Z,61.80
2018-10-09T04:23:49.396Z,61.90
2018-10-09T04:26:18.053Z,61.90
2018-10-09T04:28:46.748Z,61.90
2018-10-09T04:31:15.406Z,61.90
2018-10-09T04:33:44.092Z,61.90
2018-10-09T04:36:12.754Z,61.80
2018-10-09T04:38:41.452Z,61.80
2018-10-09T04:41:10.101Z,61.90
2018-10-09T04:43:38.740Z,61.90
2018-10-09T04:46:07.393Z,61.90
2018-10-09T04:48:36.043Z,61.90
2018-10-09T04:51:04.719Z,61.80
2018-10-09T04:53:33.417Z,61.90
2018-10-09T04:56:02.084Z,61.90
2018-10-09T04:58:30.780Z,61.90
2018-10-09T05:00:59.437Z,61.90
2018-10-09T05:03:28.084Z,61.90
2018-10-09T05:05:56.743Z,62.00
2018-10-09T05:08:25.412Z,61.90
2018-10-09T05:10:54.116Z,61.90
2018-10-09T05:13:22.782Z,61.90
2018-10-09T05:15:51.425Z,61.90
2018-10-09T05:18:20.081Z,61.90
2018-10-09T05:20:48.785Z,61.90
2018-10-09T05:23:17.452Z,61.90
2018-10-09T05:25:46.308Z,61.80
2018-10-09T05:28:15.148Z,61.80
2018-10-09T05:30:43.819Z,61.90
2018-10-09T05:33:12.477Z,61.70
2018-10-09T05:35:41.120Z,61.80
2018-10-09T05:38:09.784Z,61.70
2018-10-09T05:40:38.456Z,61.70
2018-10-09T05:43:07.252Z,61.60
2018-10-09T05:45:39.631Z,61.60
2018-10-09T05:48:09.576Z,61.60
2018-10-09T05:50:38.224Z,61.60
2018-10-09T05:53:07.049Z,61.50
2018-10-09T05:55:36.527Z,61.40
2018-10-09T05:58:05.593Z,61.40
2018-10-09T06:00:34.216Z,61.30
2018-10-09T06:03:02.896Z,61.20
2018-10-09T06:05:31.882Z,61.20
2018-10-09T06:08:00.536Z,61.30
2018-10-09T06:10:29.176Z,61.20
2018-10-09T06:12:57.833Z,61.20
2018-10-09T06:15:26.546Z,61.10
2018-10-09T06:17:55.148Z,61.10
2018-10-09T06:20:23.848Z,61.00
2018-10-09T06:22:53.247Z,60.90
2018-10-09T06:25:21.893Z,60.90
2018-10-09T06:27:50.543Z,61.00
2018-10-09T06:30:19.192Z,60.80
2018-10-09T06:32:48.253Z,60.70
2018-10-09T06:35:16.906Z,60.50
2018-10-09T06:37:45.564Z,60.60
2018-10-09T06:40:14.261Z,60.40
2018-10-09T06:42:42.929Z,60.40
2018-10-09T06:45:11.579Z,60.40
2018-10-09T06:47:40.305Z,60.20
2018-10-09T06:50:08.869Z,60.20
2018-10-09T06:52:37.533Z,60.20
2018-10-09T06:55:06.237Z,60.10
2018-10-09T06:57:34.896Z,60.10
2018-10-09T07:00:03.584Z,60.70
2018-10-09T07:02:32.221Z,60.00
2018-10-09T07:05:00.867Z,59.90
2018-10-09T07:07:29.506Z,59.90
2018-10-09T07:09:58.156Z,59.90
2018-10-09T07:12:26.844Z,59.80
2018-10-09T07:14:55.519Z,59.80
2018-10-09T07:17:24.164Z,59.80
2018-10-09T07:19:53.084Z,59.70
2018-10-09T07:22:21.754Z,59.70
2018-10-09T07:24:50.401Z,59.70
2018-10-09T07:27:19.069Z,59.60
2018-10-09T07:29:47.724Z,59.40
2018-10-09T07:32:16.372Z,59.30
2018-10-09T07:34:45.084Z,58.90
2018-10-09T07:37:13.746Z,58.50
2018-10-09T07:39:42.391Z,58.00
2018-10-09T07:42:11.021Z,57.60
2018-10-09T07:44:39.896Z,57.30
2018-10-09T07:47:08.932Z,57.00
2018-10-09T07:49:37.566Z,56.80
2018-10-09T07:52:06.212Z,56.60
2018-10-09T07:54:34.861Z,56.40
2018-10-09T07:57:03.492Z,56.50
2018-10-09T07:59:32.128Z,56.30
2018-10-09T08:02:00.988Z,56.20
2018-10-09T08:04:29.664Z,56.20
2018-10-09T08:06:58.332Z,56.20
2018-10-09T08:09:26.993Z,56.00
2018-10-09T08:11:55.648Z,56.10
2018-10-09T08:14:24.285Z,56.00
2018-10-09T08:16:52.935Z,55.70
2018-10-09T08:19:21.568Z,55.70
2018-10-09T08:21:50.220Z,55.60
2018-10-09T08:24:18.885Z,55.60
2018-10-09T08:26:47.553Z,55.50
2018-10-09T08:29:16.207Z,55.40
2018-10-09T08:31:44.877Z,55.50
2018-10-09T08:34:13.513Z,55.60
2018-10-09T08:36:42.301Z,55.70
2018-10-09T08:39:10.964Z,55.70
2018-10-09T08:41:39.597Z,55.80
2018-10-09T08:44:08.248Z,56.10
2018-10-09T08:46:36.912Z,56.00
2018-10-09T08:49:05.589Z,55.90
2018-10-09T08:51:34.252Z,55.90
2018-10-09T08:54:03.093Z,55.90
2018-10-09T08:56:32.329Z,55.90
2018-10-09T08:59:01.416Z,56.00
2018-10-09T09:01:30.040Z,56.00
2018-10-09T09:03:58.685Z,55.90
2018-10-09T09:06:27.348Z,56.00
2018-10-09T09:08:56.257Z,56.00
2018-10-09T09:11:24.941Z,56.10
2018-10-09T09:13:53.661Z,56.10
2018-10-09T09:16:22.250Z,56.00
2018-10-09T09:18:50.884Z,56.30
2018-10-09T09:21:19.556Z,56.20
2018-10-09T09:23:48.233Z,56.30
2018-10-09T09:26:16.905Z,56.30
2018-10-09T09:28:45.552Z,56.20
2018-10-09T09:31:14.192Z,56.10
2018-10-09T09:33:42.832Z,56.60
2018-10-09T09:36:11.464Z,56.00
2018-10-09T09:38:40.121Z,56.00
2018-10-09T09:41:08.843Z,55.90
2018-10-09T09:43:37.486Z,55.80
2018-10-09T09:46:06.139Z,55.60
2018-10-09T09:48:34.841Z,55.60
2018-10-09T09:51:03.504Z,55.60
2018-10-09T09:53:32.194Z,55.50
2018-10-09T09:56:01.206Z,55.60
2018-10-09T09:58:29.984Z,55.40
2018-10-09T10:01:02.688Z,55.30
2018-10-09T10:03:31.349Z,55.40
2018-10-09T10:05:59.999Z,55.30
2018-10-09T10:08:28.669Z,55.40
2018-10-09T10:10:57.308Z,55.30
2018-10-09T10:13:25.982Z,55.40
2018-10-09T10:15:54.713Z,55.30
2018-10-09T10:18:23.348Z,55.20
2018-10-09T10:20:52.023Z,55.30
2018-10-09T10:23:20.988Z,55.30
2018-10-09T10:25:49.649Z,55.30
2018-10-09T10:28:18.675Z,55.40
2018-10-09T10:30:47.708Z,56.00
2018-10-09T10:33:16.372Z,55.50
2018-10-09T10:35:45.087Z,55.60
2018-10-09T10:38:13.652Z,55.70
2018-10-09T10:40:42.281Z,55.70
2018-10-09T10:43:10.936Z,55.70
2018-10-09T10:45:39.594Z,55.70
2018-10-09T10:48:08.243Z,55.70
2018-10-09T10:50:36.907Z,55.70
2018-10-09T10:53:05.544Z,55.80
2018-10-09T10:55:34.256Z,55.80
2018-10-09T10:58:02.920Z,55.80
2018-10-09T11:00:31.572Z,55.80
2018-10-09T11:03:00.239Z,55.90
2018-10-09T11:05:28.897Z,55.90
2018-10-09T11:07:57.632Z,55.90
2018-10-09T11:10:26.241Z,55.90
2018-10-09T11:12:54.896Z,56.20
2018-10-09T11:15:23.550Z,55.90
2018-10-09T11:17:52.191Z,55.80
2018-10-09T11:20:21.138Z,55.80
2018-10-09T11:22:50.052Z,55.60
2018-10-09T11:25:18.700Z,55.70
2018-10-09T11:27:47.327Z,55.50
2018-10-09T11:30:15.997Z,55.60
2018-10-09T11:32:44.665Z,55.60
2018-10-09T11:35:13.316Z,55.60
2018-10-09T11:37:41.993Z,55.60
2018-10-09T11:40:10.661Z,55.70
2018-10-09T11:42:39.502Z,55.70
2018-10-09T11:45:08.228Z,55.80
2018-10-09T11:47:36.907Z,55.80
2018-10-09T11:50:06.484Z,55.80
2018-10-09T11:52:35.172Z,55.90
2018-10-09T11:55:03.869Z,56.00
2018-10-09T11:57:32.879Z,55.90
2018-10-09T12:00:01.533Z,55.80
2018-10-09T12:02:30.189Z,55.70
2018-10-09T12:04:58.841Z,55.70
2018-10-09T12:07:27.713Z,55.50
2018-10-09T12:09:56.361Z,55.70
2018-10-09T12:12:25.056Z,55.60
2018-10-09T12:14:53.712Z,55.60
2018-10-09T12:17:22.851Z,55.60
2018-10-09T12:19:51.493Z,55.50
2018-10-09T12:22:20.149Z,55.70
2018-10-09T12:24:49.035Z,55.70
2018-10-09T12:27:17.680Z,55.70
2018-10-09T12:29:46.366Z,55.80
2018-10-09T12:32:15.068Z,55.90
2018-10-09T12:34:43.716Z,55.90
2018-10-09T12:37:12.373Z,55.90
2018-10-09T12:39:41.037Z,56.50
2018-10-09T12:42:09.685Z,55.90
2018-10-09T12:44:38.326Z,55.80
2018-10-09T12:47:07.332Z,55.70
2018-10-09T12:49:36.188Z,55.60
2018-10-09T12:52:05.183Z,55.50
2018-10-09T12:54:33.868Z,55.60
2018-10-09T12:57:02.547Z,55.60
2018-10-09T12:59:31.200Z,55.70
2018-10-09T13:01:59.856Z,55.80
2018-10-09T13:04:28.612Z,55.90
2018-10-09T13:06:57.264Z,56.00
2018-10-09T13:09:25.970Z,56.10
2018-10-09T13:11:54.620Z,56.10
2018-10-09T13:14:23.288Z,56.20
2018-10-09T13:16:51.949Z,56.30
2018-10-09T13:19:20.586Z,56.80
2018-10-09T13:21:49.756Z,56.30
2018-10-09T13:24:17.946Z,56.30
2018-10-09T13:26:46.610Z,56.30
2018-10-09T13:29:15.256Z,56.30
2018-10-09T13:31:43.932Z,56.30
2018-10-09T13:34:12.861Z,56.30
2018-10-09T13:36:41.518Z,56.30
2018-10-09T13:39:10.215Z,56.20
2018-10-09T13:41:38.875Z,56.30
2018-10-09T13:44:08.147Z,56.20
2018-10-09T13:46:38.416Z,56.20
2018-10-09T13:49:08.131Z,56.20
2018-10-09T13:51:36.772Z,56.30
2018-10-09T13:54:05.413Z,56.30
2018-10-09T13:56:34.060Z,56.40
2018-10-09T13:59:02.772Z,56.40
2018-10-09T14:01:31.408Z,56.40
2018-10-09T14:04:00.053Z,56.40
2018-10-09T14:06:28.749Z,56.40
2018-10-09T14:08:57.388Z,56.40
2018-10-09T14:11:26.052Z,56.40
2018-10-09T14:13:54.713Z,56.40
2018-10-09T14:16:23.418Z,56.40
2018-10-09T14:18:52.068Z,56.40
2018-10-09T14:21:20.736Z,56.40
2018-10-09T14:23:49.653Z,56.50
2018-10-09T14:26:18.336Z,56.40
2018-10-09T14:28:46.991Z,56.50
2018-10-09T14:31:15.640Z,56.50
2018-10-09T14:33:44.665Z,56.50
2018-10-09T14:36:13.321Z,56.50
2018-10-09T14:38:41.981Z,56.40
2018-10-09T14:41:10.614Z,56.40
2018-10-09T14:43:39.249Z,56.50
2018-10-09T14:46:08.672Z,56.50
2018-10-09T14:48:37.556Z,56.50
2018-10-09T14:51:06.468Z,56.50
2018-10-09T14:53:35.372Z,56.50
2018-10-09T14:56:04.032Z,56.50
2018-10-09T14:58:32.672Z,56.60
2018-10-09T15:01:01.368Z,56.60
2018-10-09T15:03:30.131Z,56.60
2018-10-09T15:05:58.716Z,56.60
2018-10-09T15:08:27.369Z,56.60
2018-10-09T15:10:56.032Z,56.60
2018-10-09T15:13:24.704Z,56.60
2018-10-09T15:15:53.384Z,56.60
2018-10-09T15:18:22.044Z,56.70
2018-10-09T15:20:50.696Z,56.70
2018-10-09T15:23:19.344Z,56.80
2018-10-09T15:25:48.001Z,56.70
2018-10-09T15:28:23.233Z,56.70
2018-10-09T15:30:51.900Z,56.80
2018-10-09T15:33:20.556Z,56.80
2018-10-09T15:35:49.215Z,56.90
2018-10-09T15:38:17.905Z,56.80
2018-10-09T15:40:46.563Z,56.90
2018-10-09T15:43:15.211Z,56.90
2018-10-09T15:45:43.881Z,57.00
2018-10-09T15:48:12.533Z,57.00
2018-10-09T15:50:41.185Z,56.90
2018-10-09T15:53:09.833Z,56.90
2018-10-09T15:55:38.493Z,57.00
2018-10-09T15:58:07.169Z,57.00
2018-10-09T16:00:37.621Z,57.00
2018-10-09T16:03:07.225Z,57.10
2018-10-09T16:05:35.872Z,57.10
2018-10-09T16:08:04.515Z,57.10
2018-10-09T16:10:33.224Z,57.20
2018-10-09T16:13:02.272Z,57.20
2018-10-09T16:15:30.943Z,57.20
2018-10-09T16:17:59.597Z,57.30
2018-10-09T16:20:28.285Z,57.30
2018-10-09T16:22:56.957Z,57.30
2018-10-09T16:25:25.631Z,57.30
2018-10-09T16:27:54.266Z,57.30
2018-10-09T16:30:22.920Z,57.30
2018-10-09T16:32:51.642Z,57.90
2018-10-09T16:35:20.228Z,57.40
2018-10-09T16:37:48.916Z,57.40
2018-10-09T16:40:17.592Z,57.40
2018-10-09T16:42:46.252Z,57.40
2018-10-09T16:45:14.948Z,57.40
2018-10-09T16:47:43.814Z,57.60
2018-10-09T16:50:12.470Z,57.60
2018-10-09T16:52:41.124Z,57.60
2018-10-09T16:55:09.776Z,57.70
2018-10-09T16:57:38.443Z,58.30
2018-10-09T17:00:07.178Z,57.80
2018-10-09T17:02:35.832Z,57.80
2018-10-09T17:05:04.505Z,57.90
2018-10-09T17:07:33.165Z,57.90
2018-10-09T17:10:01.840Z,57.90
2018-10-09T17:12:31.400Z,57.90
2018-10-09T17:15:00.071Z,58.00
2018-10-09T17:17:28.715Z,58.00
2018-10-09T17:19:57.644Z,58.10
2018-10-09T17:22:26.364Z,58.10
2018-10-09T17:24:55.024Z,58.20
2018-10-09T17:27:23.752Z,58.20
2018-10-09T17:29:52.415Z,58.20
2018-10-09T17:32:21.092Z,58.30
2018-10-09T17:34:49.732Z,58.40
2018-10-09T17:37:18.453Z,58.30
2018-10-09T17:39:47.128Z,58.30
2018-10-09T17:42:15.871Z,58.50
2018-10-09T17:44:44.456Z,58.40
2018-10-09T17:47:13.149Z,58.40
2018-10-09T17:49:41.829Z,58.50
2018-10-09T17:52:11.525Z,58.50
2018-10-09T17:54:40.220Z,58.50
2018-10-09T17:57:09.213Z,58.50
2018-10-09T17:59:37.888Z,58.60
2018-10-09T18:02:06.847Z,58.60
2018-10-09T18:04:35.511Z,58.60
2018-10-09T18:07:04.163Z,58.60
2018-10-09T18:09:32.804Z,58.70
2018-10-09T18:12:01.504Z,58.80
2018-10-09T18:14:30.215Z,58.80
2018-10-09T18:16:58.832Z,58.80
2018-10-09T18:19:27.476Z,58.90
2018-10-09T18:21:56.154Z,58.90
2018-10-09T18:24:24.810Z,58.90
2018-10-09T18:26:53.510Z,59.00
2018-10-09T18:29:22.168Z,59.00
2018-10-09T18:31:50.820Z,59.10
2018-10-09T18:34:19.464Z,59.10
2018-10-09T18:36:48.117Z,59.10
2018-10-09T18:39:17.500Z,59.10
2018-10-09T18:41:47.208Z,59.20
2018-10-09T18:44:16.340Z,59.20
2018-10-09T18:46:44.992Z,59.20
2018-10-09T18:49:13.634Z,59.40
2018-10-09T18:51:42.278Z,59.40
2018-10-09T18:54:10.968Z,59.40
2018-10-09T18:56:39.632Z,59.30
2018-10-09T18:59:08.287Z,59.40
2018-10-09T19:01:36.937Z,59.50
2018-10-09T19:04:05.616Z,59.40
2018-10-09T19:06:34.282Z,59.40
2018-10-09T19:09:03.228Z,59.60
2018-10-09T19:11:31.865Z,59.50
2018-10-09T19:14:00.517Z,59.50
2018-10-09T19:16:29.165Z,59.70
2018-10-09T19:18:57.820Z,59.60
2018-10-09T19:21:26.480Z,59.60
2018-10-09T19:23:55.243Z,59.70
2018-10-09T19:26:23.844Z,59.70
2018-10-09T19:28:52.488Z,59.60
2018-10-09T19:31:21.149Z,59.70
2018-10-09T19:33:49.793Z,59.80
2018-10-09T19:36:18.437Z,59.90
2018-10-09T19:38:47.083Z,59.70
2018-10-09T19:41:15.757Z,59.90
2018-10-09T19:43:44.401Z,59.80
2018-10-09T19:46:13.075Z,59.70
2018-10-09T19:48:41.719Z,59.80
2018-10-09T19:51:10.510Z,59.80
2018-10-09T19:53:39.061Z,59.80
2018-10-09T19:56:07.762Z,59.80
2018-10-09T19:58:36.408Z,59.90
2018-10-09T20:01:05.339Z,59.90
2018-10-09T20:03:33.997Z,59.90
2018-10-09T20:06:02.656Z,60.00
2018-10-09T20:08:31.296Z,60.00
2018-10-09T20:10:59.948Z,60.00
2018-10-09T20:13:28.580Z,60.00
2018-10-09T20:15:57.253Z,60.00
2018-10-09T20:18:25.913Z,60.10
2018-10-09T20:20:55.096Z,60.10
2018-10-09T20:23:24.056Z,60.10
2018-10-09T20:25:52.716Z,60.00
2018-10-09T20:28:21.360Z,60.00
2018-10-09T20:30:50.056Z,60.00
2018-10-09T20:33:18.772Z,60.00
2018-10-09T20:35:47.412Z,60.10
2018-10-09T20:38:16.087Z,60.10
2018-10-09T20:40:44.786Z,60.20
2018-10-09T20:43:13.449Z,60.20
2018-10-09T20:45:42.144Z,60.20
2018-10-09T20:48:10.804Z,60.20
2018-10-09T20:50:39.449Z,60.30
2018-10-09T20:53:08.126Z,60.30
2018-10-09T20:55:36.784Z,60.30
2018-10-09T20:58:05.500Z,60.30
2018-10-09T21:00:34.196Z,60.30
2018-10-09T21:03:02.844Z,60.40
2018-10-09T21:05:31.523Z,60.40
2018-10-09T21:08:00.192Z,60.30
2018-10-09T21:10:29.308Z,60.40
2018-10-09T21:12:58.020Z,60.40
2018-10-09T21:15:26.749Z,60.40
2018-10-09T21:17:55.465Z,60.50
2018-10-09T21:20:24.088Z,60.40
2018-10-09T21:22:52.865Z,60.40
2018-10-09T21:25:21.569Z,60.40
2018-10-09T21:27:50.252Z,60.50
2018-10-09T21:30:18.905Z,60.50
2018-10-09T21:32:47.564Z,60.60
2018-10-09T21:35:16.223Z,60.50
2018-10-09T21:37:44.888Z,60.50
2018-10-09T21:40:13.531Z,60.50
2018-10-09T21:42:42.200Z,60.60
2018-10-09T21:45:10.845Z,60.40
2018-10-09T21:47:43.670Z,60.50
2018-10-09T21:50:12.693Z,60.50
2018-10-09T21:52:41.345Z,60.60
2018-10-09T21:55:09.996Z,60.60
2018-10-09T21:57:38.697Z,60.50
2018-10-09T22:00:09.144Z,60.50
2018-10-09T22:02:38.572Z,60.60
2018-10-09T22:05:08.456Z,60.60
2018-10-09T22:07:37.103Z,60.70
2018-10-09T22:10:06.192Z,60.70
2018-10-09T22:12:35.129Z,60.70
2018-10-09T22:15:03.832Z,60.70
2018-10-09T22:17:32.509Z,60.70
2018-10-09T22:20:01.160Z,60.60
2018-10-09T22:22:29.814Z,60.70
2018-10-09T22:24:58.468Z,60.70
2018-10-09T22:27:27.120Z,60.70
2018-10-09T22:29:55.759Z,60.60
2018-10-09T22:32:24.444Z,60.70
2018-10-09T22:34:53.110Z,60.70
2018-10-09T22:37:21.761Z,60.70
2018-10-09T22:39:50.400Z,60.60
2018-10-09T22:42:19.104Z,60.60
2018-10-09T22:44:47.761Z,60.70
2018-10-09T22:47:16.455Z,60.70
2018-10-09T22:49:45.115Z,60.60
2018-10-09T22:52:13.749Z,60.60
2018-10-09T22:54:42.401Z,60.70
2018-10-09T22:57:11.070Z,60.70
2018-10-09T22:59:39.737Z,60.80
2018-10-09T23:02:08.414Z,60.70
2018-10-09T23:04:37.120Z,60.80
2018-10-09T23:07:06.300Z,60.80
2018-10-09T23:09:34.965Z,60.80
2018-10-09T23:12:03.614Z,60.80
2018-10-09T23:14:32.274Z,60.80
2018-10-09T23:17:00.923Z,60.90
2018-10-09T23:19:29.946Z,60.80
2018-10-09T23:21:58.785Z,60.80
2018-10-09T23:24:27.484Z,60.90
2018-10-09T23:26:56.157Z,60.90
2018-10-09T23:29:24.821Z,60.90
2018-10-09T23:31:53.472Z,61.00
2018-10-09T23:34:22.179Z,60.90
2018-10-09T23:36:50.853Z,60.80
2018-10-09T23:39:19.535Z,60.80
2018-10-09T23:41:48.194Z,60.80
2018-10-09T23:44:16.845Z,60.80
2018-10-09T23:46:45.496Z,60.80
2018-10-09T23:49:14.132Z,60.90
2018-10-09T23:51:42.776Z,60.90
2018-10-09T23:54:11.429Z,60.90
2018-10-09T23:56:40.092Z,61.00
2018-10-09T23:59:08.749Z,61.00
